Portada
METAR-TAF:

METAR-TAF

Aeroports :

Shahrekord, Iran

latitud: 32-20N, longitud: 050-51E, altitud: 2078 m

Observació

L'informe es va fer fa 19 minuts, a les 22:00 UTC
Vent 2 kt del Oest
Temperatura -3°C
Humitat 80%
Pressió 1018 hPa
Visibilitat 10 km o més
sense núvols per sota de 1500 mi sense presència de cumulonimbus.

METAR: OIFS 282200Z 27002KT CAVOK M03/M06 Q1018

Hora: 01:49 (22:19 UTC)


TAF: manca

Observacions i pronòstics meteorològics de més de 4000 aeroports (METAR i TAF).

Les estacions disponibles són els punts grocs i vermells al mapa.

Posi el ratolí al punt desitjat per veure el nom de l'estació.

Feu clic per veure les observacions i els pronòstics meteorològics.

Per canviar el mapa: feu clic els botons verds amb una creu de color negre per apropar; al botó verd amb un guió per allunyar la imatge; o en les fletxes verdes per a mapes adjacents.


METAR-TAF: